Ellsworth, Kansas
Current Conditions -  °F | °C
As of 3:53 PM on Tuesday 25 Nov 2014 (Local Time) from KSLN Reporting Station
Clear Clear  
Wind Chill: 50°   Ceiling: Unl
Heat Index: 50°   Visibility: 10mi
Dew Point: 22°   Wind: 13mph
Humidity: 33%   Direction: 200°SSW
Pressure: 30.01"   Gusts: NA
Location:  38.73°N, 98.23°W
Report Text: KSLN 252153Z AUTO 20011KT 10SM CLR 10/M06 A3001 RMK AO2 SLP170 T01001056
Loading
Personal Weather Stations






























Interactive Weather Map New forecast layout! Learn more

10-Day Weather Forecast

Advertisements
Track Severe Weather on mobile